sensor_id;sensor_type;location;lat;lon;timestamp;P1;durP1;ratioP1;P2;durP2;ratioP2
43710;SDS011;29309;42.682;23.372;2022-07-21T00:01:10;3.00;;;1.88;;
43710;SDS011;29309;42.682;23.372;2022-07-21T00:03:35;3.75;;;2.20;;
43710;SDS011;29309;42.682;23.372;2022-07-21T00:06:02;3.90;;;2.10;;
43710;SDS011;29309;42.682;23.372;2022-07-21T00:08:28;4.25;;;2.63;;
43710;SDS011;29309;42.682;23.372;2022-07-21T00:10:53;3.35;;;2.13;;
43710;SDS011;29309;42.682;23.372;2022-07-21T00:13:19;2.78;;;1.90;;
43710;SDS011;29309;42.682;23.372;2022-07-21T00:15:45;5.10;;;1.98;;
43710;SDS011;29309;42.682;23.372;2022-07-21T00:18:11;2.13;;;1.60;;
43710;SDS011;29309;42.682;23.372;2022-07-21T00:20:37;6.13;;;2.20;;
43710;SDS011;29309;42.682;23.372;2022-07-21T00:23:03;5.82;;;1.88;;
43710;SDS011;29309;42.682;23.372;2022-07-21T00:25:29;3.92;;;2.25;;
43710;SDS011;29309;42.682;23.372;2022-07-21T00:27:55;4.60;;;2.40;;
43710;SDS011;29309;42.682;23.372;2022-07-21T00:30:21;3.45;;;1.77;;
43710;SDS011;29309;42.682;23.372;2022-07-21T00:32:46;4.68;;;2.20;;
43710;SDS011;29309;42.682;23.372;2022-07-21T00:35:12;3.80;;;1.90;;
43710;SDS011;29309;42.682;23.372;2022-07-21T00:37:38;3.05;;;2.08;;
43710;SDS011;29309;42.682;23.372;2022-07-21T00:40:05;1.90;;;1.70;;
43710;SDS011;29309;42.682;23.372;2022-07-21T00:42:32;4.22;;;2.08;;
43710;SDS011;29309;42.682;23.372;2022-07-21T00:44:59;5.32;;;1.90;;
43710;SDS011;29309;42.682;23.372;2022-07-21T00:47:27;4.43;;;2.28;;
43710;SDS011;29309;42.682;23.372;2022-07-21T00:49:54;10.05;;;2.17;;
43710;SDS011;29309;42.682;23.372;2022-07-21T00:52:20;4.78;;;2.15;;
43710;SDS011;29309;42.682;23.372;2022-07-21T00:54:46;3.58;;;1.85;;
43710;SDS011;29309;42.682;23.372;2022-07-21T00:57:12;5.22;;;1.60;;
43710;SDS011;29309;42.682;23.372;2022-07-21T00:59:39;6.13;;;2.13;;
43710;SDS011;29309;42.682;23.372;2022-07-21T01:02:06;3.72;;;2.20;;
43710;SDS011;29309;42.682;23.372;2022-07-21T01:04:32;4.20;;;1.92;;
43710;SDS011;29309;42.682;23.372;2022-07-21T01:06:59;3.97;;;1.92;;
43710;SDS011;29309;42.682;23.372;2022-07-21T01:09:26;7.70;;;2.45;;
43710;SDS011;29309;42.682;23.372;2022-07-21T01:11:52;5.60;;;2.03;;
43710;SDS011;29309;42.682;23.372;2022-07-21T01:14:17;5.72;;;2.30;;
43710;SDS011;29309;42.682;23.372;2022-07-21T01:16:43;4.75;;;2.38;;
43710;SDS011;29309;42.682;23.372;2022-07-21T01:19:09;2.80;;;1.80;;
43710;SDS011;29309;42.682;23.372;2022-07-21T01:21:42;5.75;;;1.83;;
43710;SDS011;29309;42.682;23.372;2022-07-21T01:24:09;6.47;;;2.60;;
43710;SDS011;29309;42.682;23.372;2022-07-21T01:26:42;3.72;;;2.05;;
43710;SDS011;29309;42.682;23.372;2022-07-21T01:29:09;3.33;;;1.83;;
43710;SDS011;29309;42.682;23.372;2022-07-21T01:31:36;3.67;;;2.05;;
43710;SDS011;29309;42.682;23.372;2022-07-21T01:34:03;5.07;;;1.83;;
43710;SDS011;29309;42.682;23.372;2022-07-21T01:36:29;2.85;;;1.92;;
43710;SDS011;29309;42.682;23.372;2022-07-21T01:38:54;5.50;;;2.75;;
43710;SDS011;29309;42.682;23.372;2022-07-21T01:41:38;8.57;;;2.47;;
43710;SDS011;29309;42.682;23.372;2022-07-21T01:44:08;3.38;;;2.35;;
43710;SDS011;29309;42.682;23.372;2022-07-21T01:46:36;5.35;;;2.40;;
43710;SDS011;29309;42.682;23.372;2022-07-21T01:49:05;2.38;;;2.03;;
43710;SDS011;29309;42.682;23.372;2022-07-21T01:51:32;6.45;;;2.38;;
43710;SDS011;29309;42.682;23.372;2022-07-21T01:53:58;6.15;;;2.20;;
43710;SDS011;29309;42.682;23.372;2022-07-21T01:56:24;10.30;;;2.28;;
43710;SDS011;29309;42.682;23.372;2022-07-21T01:58:52;3.72;;;2.10;;
43710;SDS011;29309;42.682;23.372;2022-07-21T02:01:20;4.82;;;2.30;;
43710;SDS011;29309;42.682;23.372;2022-07-21T02:03:47;9.70;;;2.63;;
43710;SDS011;29309;42.682;23.372;2022-07-21T02:06:13;4.20;;;2.42;;
43710;SDS011;29309;42.682;23.372;2022-07-21T02:08:40;4.53;;;2.30;;
43710;SDS011;29309;42.682;23.372;2022-07-21T02:11:07;4.20;;;1.88;;
43710;SDS011;29309;42.682;23.372;2022-07-21T02:13:34;16.25;;;2.42;;
43710;SDS011;29309;42.682;23.372;2022-07-21T02:16:00;3.92;;;2.13;;
43710;SDS011;29309;42.682;23.372;2022-07-21T02:18:27;3.53;;;2.20;;
43710;SDS011;29309;42.682;23.372;2022-07-21T02:20:52;5.05;;;2.60;;
43710;SDS011;29309;42.682;23.372;2022-07-21T02:23:19;4.10;;;2.80;;
43710;SDS011;29309;42.682;23.372;2022-07-21T02:25:45;6.90;;;2.47;;
43710;SDS011;29309;42.682;23.372;2022-07-21T02:28:11;6.15;;;2.30;;
43710;SDS011;29309;42.682;23.372;2022-07-21T02:30:37;7.57;;;2.60;;
43710;SDS011;29309;42.682;23.372;2022-07-21T02:33:03;4.70;;;2.42;;
43710;SDS011;29309;42.682;23.372;2022-07-21T02:35:28;6.25;;;2.42;;
43710;SDS011;29309;42.682;23.372;2022-07-21T02:37:54;7.32;;;2.70;;
43710;SDS011;29309;42.682;23.372;2022-07-21T02:40:19;6.60;;;2.42;;
43710;SDS011;29309;42.682;23.372;2022-07-21T02:42:45;5.93;;;3.00;;
43710;SDS011;29309;42.682;23.372;2022-07-21T02:45:10;4.07;;;2.92;;
43710;SDS011;29309;42.682;23.372;2022-07-21T02:50:19;7.93;;;2.75;;
43710;SDS011;29309;42.682;23.372;2022-07-21T02:52:46;4.40;;;2.95;;
43710;SDS011;29309;42.682;23.372;2022-07-21T02:55:11;8.40;;;2.75;;
43710;SDS011;29309;42.682;23.372;2022-07-21T02:57:37;5.40;;;3.15;;
43710;SDS011;29309;42.682;23.372;2022-07-21T03:00:04;4.85;;;2.55;;
43710;SDS011;29309;42.682;23.372;2022-07-21T03:02:31;4.85;;;3.10;;
43710;SDS011;29309;42.682;23.372;2022-07-21T03:04:57;7.53;;;3.17;;
43710;SDS011;29309;42.682;23.372;2022-07-21T03:07:22;3.90;;;2.47;;
43710;SDS011;29309;42.682;23.372;2022-07-21T03:09:48;5.57;;;2.83;;
43710;SDS011;29309;42.682;23.372;2022-07-21T03:12:13;4.90;;;2.85;;
43710;SDS011;29309;42.682;23.372;2022-07-21T03:14:39;7.35;;;2.58;;
43710;SDS011;29309;42.682;23.372;2022-07-21T03:17:04;7.93;;;2.97;;
43710;SDS011;29309;42.682;23.372;2022-07-21T03:19:30;4.45;;;2.70;;
43710;SDS011;29309;42.682;23.372;2022-07-21T03:21:55;5.70;;;2.88;;
43710;SDS011;29309;42.682;23.372;2022-07-21T03:24:21;3.58;;;2.58;;
43710;SDS011;29309;42.682;23.372;2022-07-21T03:26:46;5.43;;;2.47;;
43710;SDS011;29309;42.682;23.372;2022-07-21T03:29:12;3.38;;;2.10;;
43710;SDS011;29309;42.682;23.372;2022-07-21T03:31:37;3.42;;;2.47;;
43710;SDS011;29309;42.682;23.372;2022-07-21T03:34:03;4.72;;;2.33;;
43710;SDS011;29309;42.682;23.372;2022-07-21T03:36:29;5.35;;;2.10;;
43710;SDS011;29309;42.682;23.372;2022-07-21T03:38:54;3.45;;;1.92;;
43710;SDS011;29309;42.682;23.372;2022-07-21T03:41:20;4.50;;;2.38;;
43710;SDS011;29309;42.682;23.372;2022-07-21T03:43:48;4.50;;;2.10;;
43710;SDS011;29309;42.682;23.372;2022-07-21T03:46:14;3.17;;;2.08;;
43710;SDS011;29309;42.682;23.372;2022-07-21T03:48:40;4.63;;;2.30;;
43710;SDS011;29309;42.682;23.372;2022-07-21T03:51:05;6.85;;;2.83;;
43710;SDS011;29309;42.682;23.372;2022-07-21T03:53:31;5.35;;;3.15;;
43710;SDS011;29309;42.682;23.372;2022-07-21T03:55:57;4.55;;;2.70;;
43710;SDS011;29309;42.682;23.372;2022-07-21T03:58:26;6.68;;;2.60;;
43710;SDS011;29309;42.682;23.372;2022-07-21T04:00:54;6.03;;;3.30;;
43710;SDS011;29309;42.682;23.372;2022-07-21T04:03:23;8.95;;;2.90;;
43710;SDS011;29309;42.682;23.372;2022-07-21T04:05:48;6.07;;;2.40;;
43710;SDS011;29309;42.682;23.372;2022-07-21T04:08:14;8.32;;;3.33;;
43710;SDS011;29309;42.682;23.372;2022-07-21T04:10:41;8.98;;;3.58;;
43710;SDS011;29309;42.682;23.372;2022-07-21T04:13:09;6.40;;;3.55;;
43710;SDS011;29309;42.682;23.372;2022-07-21T04:15:36;25.98;;;3.70;;
43710;SDS011;29309;42.682;23.372;2022-07-21T04:18:03;5.32;;;2.90;;
43710;SDS011;29309;42.682;23.372;2022-07-21T04:20:29;6.43;;;2.58;;
43710;SDS011;29309;42.682;23.372;2022-07-21T04:22:56;6.88;;;2.88;;
43710;SDS011;29309;42.682;23.372;2022-07-21T04:25:21;9.73;;;3.15;;
43710;SDS011;29309;42.682;23.372;2022-07-21T04:27:47;4.70;;;2.78;;
43710;SDS011;29309;42.682;23.372;2022-07-21T04:30:15;9.30;;;3.58;;
43710;SDS011;29309;42.682;23.372;2022-07-21T04:32:43;5.57;;;3.15;;
43710;SDS011;29309;42.682;23.372;2022-07-21T04:35:09;5.10;;;2.55;;
43710;SDS011;29309;42.682;23.372;2022-07-21T04:37:36;7.00;;;2.72;;
43710;SDS011;29309;42.682;23.372;2022-07-21T04:40:02;5.20;;;2.40;;
43710;SDS011;29309;42.682;23.372;2022-07-21T04:42:29;3.53;;;2.70;;
43710;SDS011;29309;42.682;23.372;2022-07-21T04:44:55;4.30;;;2.40;;
43710;SDS011;29309;42.682;23.372;2022-07-21T04:47:21;7.25;;;2.90;;
43710;SDS011;29309;42.682;23.372;2022-07-21T04:49:47;9.98;;;3.30;;
43710;SDS011;29309;42.682;23.372;2022-07-21T04:52:12;6.05;;;3.15;;
43710;SDS011;29309;42.682;23.372;2022-07-21T04:54:38;7.55;;;3.80;;
43710;SDS011;29309;42.682;23.372;2022-07-21T04:57:04;11.65;;;4.60;;
43710;SDS011;29309;42.682;23.372;2022-07-21T04:59:31;4.70;;;3.20;;
43710;SDS011;29309;42.682;23.372;2022-07-21T05:01:57;8.43;;;3.28;;
43710;SDS011;29309;42.682;23.372;2022-07-21T05:04:23;5.50;;;3.58;;
43710;SDS011;29309;42.682;23.372;2022-07-21T05:06:52;4.75;;;3.17;;
43710;SDS011;29309;42.682;23.372;2022-07-21T05:09:18;7.70;;;3.10;;
43710;SDS011;29309;42.682;23.372;2022-07-21T05:11:45;6.35;;;3.13;;
43710;SDS011;29309;42.682;23.372;2022-07-21T05:14:10;8.25;;;3.45;;
43710;SDS011;29309;42.682;23.372;2022-07-21T05:16:36;9.15;;;3.05;;
43710;SDS011;29309;42.682;23.372;2022-07-21T05:19:01;6.70;;;3.13;;
43710;SDS011;29309;42.682;23.372;2022-07-21T05:21:29;7.57;;;3.80;;
43710;SDS011;29309;42.682;23.372;2022-07-21T05:23:55;6.05;;;3.28;;
43710;SDS011;29309;42.682;23.372;2022-07-21T05:26:21;8.63;;;3.70;;
43710;SDS011;29309;42.682;23.372;2022-07-21T05:28:47;7.15;;;3.85;;
43710;SDS011;29309;42.682;23.372;2022-07-21T05:31:12;7.60;;;4.75;;
43710;SDS011;29309;42.682;23.372;2022-07-21T05:33:38;10.63;;;3.80;;
43710;SDS011;29309;42.682;23.372;2022-07-21T05:36:04;6.65;;;4.00;;
43710;SDS011;29309;42.682;23.372;2022-07-21T05:38:30;14.40;;;3.70;;
43710;SDS011;29309;42.682;23.372;2022-07-21T05:40:55;10.40;;;3.40;;
43710;SDS011;29309;42.682;23.372;2022-07-21T05:43:21;9.13;;;4.88;;
43710;SDS011;29309;42.682;23.372;2022-07-21T05:45:46;9.95;;;4.25;;
43710;SDS011;29309;42.682;23.372;2022-07-21T05:48:12;5.78;;;3.70;;
43710;SDS011;29309;42.682;23.372;2022-07-21T05:50:39;5.50;;;4.03;;
43710;SDS011;29309;42.682;23.372;2022-07-21T05:53:04;8.95;;;3.80;;
43710;SDS011;29309;42.682;23.372;2022-07-21T05:55:30;7.63;;;4.07;;
43710;SDS011;29309;42.682;23.372;2022-07-21T05:57:55;8.48;;;3.47;;
43710;SDS011;29309;42.682;23.372;2022-07-21T06:00:21;8.43;;;3.42;;
43710;SDS011;29309;42.682;23.372;2022-07-21T06:02:46;10.90;;;3.70;;
43710;SDS011;29309;42.682;23.372;2022-07-21T06:05:12;9.57;;;5.55;;
43710;SDS011;29309;42.682;23.372;2022-07-21T06:07:39;8.00;;;4.53;;
43710;SDS011;29309;42.682;23.372;2022-07-21T06:10:05;7.88;;;4.03;;
43710;SDS011;29309;42.682;23.372;2022-07-21T06:12:31;7.70;;;3.65;;
43710;SDS011;29309;42.682;23.372;2022-07-21T06:14:57;15.88;;;6.13;;
43710;SDS011;29309;42.682;23.372;2022-07-21T06:17:23;5.57;;;3.30;;
43710;SDS011;29309;42.682;23.372;2022-07-21T06:19:48;5.65;;;3.95;;
43710;SDS011;29309;42.682;23.372;2022-07-21T06:22:14;11.88;;;5.82;;
43710;SDS011;29309;42.682;23.372;2022-07-21T06:24:39;8.68;;;4.13;;
43710;SDS011;29309;42.682;23.372;2022-07-21T06:27:05;8.98;;;3.90;;
43710;SDS011;29309;42.682;23.372;2022-07-21T06:29:30;7.72;;;3.20;;
43710;SDS011;29309;42.682;23.372;2022-07-21T06:31:56;7.18;;;3.75;;
43710;SDS011;29309;42.682;23.372;2022-07-21T06:34:21;7.28;;;3.13;;
43710;SDS011;29309;42.682;23.372;2022-07-21T06:36:47;12.55;;;3.47;;
43710;SDS011;29309;42.682;23.372;2022-07-21T06:39:12;9.82;;;3.63;;
43710;SDS011;29309;42.682;23.372;2022-07-21T06:41:38;12.23;;;4.43;;
43710;SDS011;29309;42.682;23.372;2022-07-21T06:44:04;14.15;;;4.75;;
43710;SDS011;29309;42.682;23.372;2022-07-21T06:46:31;8.52;;;4.10;;
43710;SDS011;29309;42.682;23.372;2022-07-21T06:48:57;12.27;;;4.55;;
43710;SDS011;29309;42.682;23.372;2022-07-21T06:51:23;7.28;;;4.15;;
43710;SDS011;29309;42.682;23.372;2022-07-21T06:53:48;11.68;;;4.57;;
43710;SDS011;29309;42.682;23.372;2022-07-21T06:56:14;11.13;;;4.25;;
43710;SDS011;29309;42.682;23.372;2022-07-21T06:58:39;10.80;;;3.97;;
43710;SDS011;29309;42.682;23.372;2022-07-21T07:01:05;17.42;;;4.07;;
43710;SDS011;29309;42.682;23.372;2022-07-21T07:03:31;11.57;;;3.55;;
43710;SDS011;29309;42.682;23.372;2022-07-21T07:05:58;11.10;;;4.35;;
43710;SDS011;29309;42.682;23.372;2022-07-21T07:08:23;8.68;;;4.05;;
43710;SDS011;29309;42.682;23.372;2022-07-21T07:10:48;10.95;;;3.58;;
43710;SDS011;29309;42.682;23.372;2022-07-21T07:13:14;10.45;;;3.53;;
43710;SDS011;29309;42.682;23.372;2022-07-21T07:15:40;12.45;;;3.63;;
43710;SDS011;29309;42.682;23.372;2022-07-21T07:18:06;13.52;;;3.85;;
43710;SDS011;29309;42.682;23.372;2022-07-21T07:20:32;9.93;;;5.70;;
43710;SDS011;29309;42.682;23.372;2022-07-21T07:22:58;7.97;;;3.28;;
43710;SDS011;29309;42.682;23.372;2022-07-21T07:25:23;8.07;;;3.00;;
43710;SDS011;29309;42.682;23.372;2022-07-21T07:27:49;10.43;;;3.22;;
43710;SDS011;29309;42.682;23.372;2022-07-21T07:30:17;7.85;;;2.88;;
43710;SDS011;29309;42.682;23.372;2022-07-21T07:32:43;10.35;;;2.75;;
43710;SDS011;29309;42.682;23.372;2022-07-21T07:35:09;7.72;;;3.13;;
43710;SDS011;29309;42.682;23.372;2022-07-21T07:37:40;13.50;;;4.78;;
43710;SDS011;29309;42.682;23.372;2022-07-21T07:40:11;13.68;;;4.15;;
43710;SDS011;29309;42.682;23.372;2022-07-21T07:42:39;13.07;;;3.38;;
43710;SDS011;29309;42.682;23.372;2022-07-21T07:45:05;10.95;;;2.40;;
43710;SDS011;29309;42.682;23.372;2022-07-21T07:47:32;4.60;;;2.92;;
43710;SDS011;29309;42.682;23.372;2022-07-21T07:49:58;6.90;;;2.47;;
43710;SDS011;29309;42.682;23.372;2022-07-21T07:52:24;10.05;;;2.75;;
43710;SDS011;29309;42.682;23.372;2022-07-21T07:54:50;7.68;;;2.78;;
43710;SDS011;29309;42.682;23.372;2022-07-21T07:57:15;5.47;;;2.28;;
43710;SDS011;29309;42.682;23.372;2022-07-21T07:59:41;8.20;;;2.47;;
43710;SDS011;29309;42.682;23.372;2022-07-21T08:02:06;15.68;;;2.63;;
43710;SDS011;29309;42.682;23.372;2022-07-21T08:04:32;12.43;;;2.20;;
43710;SDS011;29309;42.682;23.372;2022-07-21T08:06:57;7.35;;;2.65;;
43710;SDS011;29309;42.682;23.372;2022-07-21T08:09:23;7.93;;;2.25;;
43710;SDS011;29309;42.682;23.372;2022-07-21T08:11:48;4.32;;;2.28;;
43710;SDS011;29309;42.682;23.372;2022-07-21T08:14:15;3.45;;;1.88;;
43710;SDS011;29309;42.682;23.372;2022-07-21T08:16:41;4.70;;;2.10;;
43710;SDS011;29309;42.682;23.372;2022-07-21T08:19:07;4.20;;;2.85;;
43710;SDS011;29309;42.682;23.372;2022-07-21T08:21:33;10.90;;;2.50;;
43710;SDS011;29309;42.682;23.372;2022-07-21T08:24:01;8.27;;;3.10;;
43710;SDS011;29309;42.682;23.372;2022-07-21T08:26:27;5.78;;;2.75;;
43710;SDS011;29309;42.682;23.372;2022-07-21T08:28:53;5.03;;;2.05;;
43710;SDS011;29309;42.682;23.372;2022-07-21T08:31:20;3.47;;;2.08;;
43710;SDS011;29309;42.682;23.372;2022-07-21T08:33:46;3.83;;;1.80;;
43710;SDS011;29309;42.682;23.372;2022-07-21T08:36:11;3.67;;;2.00;;
43710;SDS011;29309;42.682;23.372;2022-07-21T08:38:37;3.70;;;1.77;;
43710;SDS011;29309;42.682;23.372;2022-07-21T08:41:02;4.80;;;1.98;;
43710;SDS011;29309;42.682;23.372;2022-07-21T08:43:29;4.97;;;2.60;;
43710;SDS011;29309;42.682;23.372;2022-07-21T08:45:55;4.82;;;2.30;;
43710;SDS011;29309;42.682;23.372;2022-07-21T08:48:25;6.07;;;2.40;;
43710;SDS011;29309;42.682;23.372;2022-07-21T08:50:51;3.92;;;1.85;;
43710;SDS011;29309;42.682;23.372;2022-07-21T08:53:16;4.03;;;1.90;;
43710;SDS011;29309;42.682;23.372;2022-07-21T08:55:42;3.85;;;1.92;;
43710;SDS011;29309;42.682;23.372;2022-07-21T08:58:08;5.70;;;2.13;;
43710;SDS011;29309;42.682;23.372;2022-07-21T09:00:35;5.38;;;2.30;;
43710;SDS011;29309;42.682;23.372;2022-07-21T09:05:58;8.27;;;2.72;;
43710;SDS011;29309;42.682;23.372;2022-07-21T09:08:30;5.05;;;1.90;;
43710;SDS011;29309;42.682;23.372;2022-07-21T09:13:50;4.50;;;2.35;;
43710;SDS011;29309;42.682;23.372;2022-07-21T09:16:37;4.50;;;2.15;;
43710;SDS011;29309;42.682;23.372;2022-07-21T09:19:04;2.83;;;2.03;;
43710;SDS011;29309;42.682;23.372;2022-07-21T09:21:34;5.85;;;1.90;;
43710;SDS011;29309;42.682;23.372;2022-07-21T09:24:13;2.38;;;1.98;;
43710;SDS011;29309;42.682;23.372;2022-07-21T09:27:19;7.75;;;2.28;;
43710;SDS011;29309;42.682;23.372;2022-07-21T09:29:48;13.25;;;3.05;;
43710;SDS011;29309;42.682;23.372;2022-07-21T09:32:25;7.28;;;2.42;;
43710;SDS011;29309;42.682;23.372;2022-07-21T09:34:59;4.93;;;2.45;;
43710;SDS011;29309;42.682;23.372;2022-07-21T09:37:38;5.32;;;2.10;;
43710;SDS011;29309;42.682;23.372;2022-07-21T09:40:11;4.65;;;2.08;;
43710;SDS011;29309;42.682;23.372;2022-07-21T09:42:43;7.10;;;2.33;;
43710;SDS011;29309;42.682;23.372;2022-07-21T09:45:14;3.75;;;2.28;;
43710;SDS011;29309;42.682;23.372;2022-07-21T09:47:42;11.05;;;3.50;;
43710;SDS011;29309;42.682;23.372;2022-07-21T09:50:09;7.75;;;2.35;;
43710;SDS011;29309;42.682;23.372;2022-07-21T09:52:41;7.15;;;1.90;;
43710;SDS011;29309;42.682;23.372;2022-07-21T09:55:11;3.95;;;2.33;;
43710;SDS011;29309;42.682;23.372;2022-07-21T09:57:38;2.95;;;2.25;;
43710;SDS011;29309;42.682;23.372;2022-07-21T10:00:05;2.58;;;1.88;;
43710;SDS011;29309;42.682;23.372;2022-07-21T10:02:35;5.55;;;2.13;;
43710;SDS011;29309;42.682;23.372;2022-07-21T10:07:30;3.65;;;2.10;;
43710;SDS011;29309;42.682;23.372;2022-07-21T10:09:57;4.93;;;2.22;;
43710;SDS011;29309;42.682;23.372;2022-07-21T10:12:24;2.92;;;2.20;;
43710;SDS011;29309;42.682;23.372;2022-07-21T10:14:51;3.92;;;2.20;;
43710;SDS011;29309;42.682;23.372;2022-07-21T10:17:18;4.15;;;1.90;;
43710;SDS011;29309;42.682;23.372;2022-07-21T10:22:31;3.05;;;1.83;;
43710;SDS011;29309;42.682;23.372;2022-07-21T10:25:17;8.02;;;2.17;;
43710;SDS011;29309;42.682;23.372;2022-07-21T10:30:54;3.50;;;2.05;;
43710;SDS011;29309;42.682;23.372;2022-07-21T10:36:06;4.05;;;1.92;;
43710;SDS011;29309;42.682;23.372;2022-07-21T10:38:33;5.35;;;2.03;;
43710;SDS011;29309;42.682;23.372;2022-07-21T10:41:01;4.55;;;2.28;;
43710;SDS011;29309;42.682;23.372;2022-07-21T10:45:54;5.35;;;2.20;;
43710;SDS011;29309;42.682;23.372;2022-07-21T10:51:02;6.40;;;2.40;;
43710;SDS011;29309;42.682;23.372;2022-07-21T10:53:31;2.00;;;1.80;;
43710;SDS011;29309;42.682;23.372;2022-07-21T10:55:56;6.20;;;2.50;;
43710;SDS011;29309;42.682;23.372;2022-07-21T11:00:55;9.93;;;2.47;;
43710;SDS011;29309;42.682;23.372;2022-07-21T11:03:25;5.03;;;2.38;;
43710;SDS011;29309;42.682;23.372;2022-07-21T11:08:40;2.70;;;1.97;;
43710;SDS011;29309;42.682;23.372;2022-07-21T11:11:08;3.38;;;2.00;;
43710;SDS011;29309;42.682;23.372;2022-07-21T11:19:35;8.27;;;2.63;;
43710;SDS011;29309;42.682;23.372;2022-07-21T11:24:37;8.07;;;4.00;;
43710;SDS011;29309;42.682;23.372;2022-07-21T11:29:35;5.93;;;2.65;;
43710;SDS011;29309;42.682;23.372;2022-07-21T11:32:02;6.15;;;2.60;;
43710;SDS011;29309;42.682;23.372;2022-07-21T11:34:39;3.70;;;2.80;;
43710;SDS011;29309;42.682;23.372;2022-07-21T11:37:07;3.15;;;2.33;;
43710;SDS011;29309;42.682;23.372;2022-07-21T11:39:34;3.75;;;2.47;;
43710;SDS011;29309;42.682;23.372;2022-07-21T11:42:04;8.25;;;2.97;;
43710;SDS011;29309;42.682;23.372;2022-07-21T11:44:32;6.95;;;1.98;;
43710;SDS011;29309;42.682;23.372;2022-07-21T11:46:59;3.97;;;1.70;;
43710;SDS011;29309;42.682;23.372;2022-07-21T11:49:26;6.82;;;3.28;;
43710;SDS011;29309;42.682;23.372;2022-07-21T11:51:53;3.72;;;3.05;;
43710;SDS011;29309;42.682;23.372;2022-07-21T11:54:43;6.05;;;2.60;;
43710;SDS011;29309;42.682;23.372;2022-07-21T11:57:15;4.50;;;2.90;;
43710;SDS011;29309;42.682;23.372;2022-07-21T11:59:42;11.57;;;3.33;;
43710;SDS011;29309;42.682;23.372;2022-07-21T12:02:18;3.90;;;2.47;;
43710;SDS011;29309;42.682;23.372;2022-07-21T12:04:45;5.88;;;2.42;;
43710;SDS011;29309;42.682;23.372;2022-07-21T12:09:51;4.97;;;2.28;;
43710;SDS011;29309;42.682;23.372;2022-07-21T12:12:33;2.70;;;2.00;;
43710;SDS011;29309;42.682;23.372;2022-07-21T12:17:49;4.78;;;2.17;;
43710;SDS011;29309;42.682;23.372;2022-07-21T12:20:24;8.18;;;2.30;;
43710;SDS011;29309;42.682;23.372;2022-07-21T12:22:58;9.32;;;2.47;;
43710;SDS011;29309;42.682;23.372;2022-07-21T12:28:01;8.05;;;2.78;;
43710;SDS011;29309;42.682;23.372;2022-07-21T12:30:30;2.97;;;2.38;;
43710;SDS011;29309;42.682;23.372;2022-07-21T12:33:20;4.50;;;2.60;;
43710;SDS011;29309;42.682;23.372;2022-07-21T12:36:05;5.63;;;2.60;;
43710;SDS011;29309;42.682;23.372;2022-07-21T12:41:07;11.93;;;2.83;;
43710;SDS011;29309;42.682;23.372;2022-07-21T12:43:34;3.45;;;2.40;;
43710;SDS011;29309;42.682;23.372;2022-07-21T12:46:16;4.10;;;2.67;;
43710;SDS011;29309;42.682;23.372;2022-07-21T12:48:45;4.55;;;2.53;;
43710;SDS011;29309;42.682;23.372;2022-07-21T12:53:41;2.95;;;2.53;;
43710;SDS011;29309;42.682;23.372;2022-07-21T12:56:07;7.05;;;2.25;;
43710;SDS011;29309;42.682;23.372;2022-07-21T12:58:33;3.13;;;2.40;;
43710;SDS011;29309;42.682;23.372;2022-07-21T13:01:00;5.68;;;2.15;;
43710;SDS011;29309;42.682;23.372;2022-07-21T13:03:29;11.10;;;4.85;;
43710;SDS011;29309;42.682;23.372;2022-07-21T13:05:56;5.03;;;2.17;;
43710;SDS011;29309;42.682;23.372;2022-07-21T13:08:22;3.45;;;2.33;;
43710;SDS011;29309;42.682;23.372;2022-07-21T13:10:47;3.45;;;2.33;;
43710;SDS011;29309;42.682;23.372;2022-07-21T13:13:13;6.82;;;2.35;;
43710;SDS011;29309;42.682;23.372;2022-07-21T13:15:38;5.53;;;2.50;;
43710;SDS011;29309;42.682;23.372;2022-07-21T13:18:04;5.32;;;2.22;;
43710;SDS011;29309;42.682;23.372;2022-07-21T13:20:30;5.70;;;2.13;;
43710;SDS011;29309;42.682;23.372;2022-07-21T13:22:55;4.85;;;2.67;;
43710;SDS011;29309;42.682;23.372;2022-07-21T13:25:24;5.43;;;2.40;;
43710;SDS011;29309;42.682;23.372;2022-07-21T13:27:50;6.80;;;2.45;;
43710;SDS011;29309;42.682;23.372;2022-07-21T13:30:16;2.25;;;2.00;;
43710;SDS011;29309;42.682;23.372;2022-07-21T13:32:42;3.95;;;2.45;;
43710;SDS011;29309;42.682;23.372;2022-07-21T13:35:08;4.55;;;2.15;;
43710;SDS011;29309;42.682;23.372;2022-07-21T13:37:34;2.88;;;2.13;;
43710;SDS011;29309;42.682;23.372;2022-07-21T13:39:59;5.75;;;2.05;;
43710;SDS011;29309;42.682;23.372;2022-07-21T13:42:25;3.05;;;2.05;;
43710;SDS011;29309;42.682;23.372;2022-07-21T13:44:51;5.72;;;2.58;;
43710;SDS011;29309;42.682;23.372;2022-07-21T13:47:16;3.38;;;2.50;;
43710;SDS011;29309;42.682;23.372;2022-07-21T13:49:42;4.25;;;2.35;;
43710;SDS011;29309;42.682;23.372;2022-07-21T13:52:07;3.47;;;2.47;;
43710;SDS011;29309;42.682;23.372;2022-07-21T13:54:33;7.05;;;2.88;;
43710;SDS011;29309;42.682;23.372;2022-07-21T13:56:59;17.48;;;2.85;;
43710;SDS011;29309;42.682;23.372;2022-07-21T13:59:25;8.70;;;2.42;;
43710;SDS011;29309;42.682;23.372;2022-07-21T14:01:51;15.52;;;2.30;;
43710;SDS011;29309;42.682;23.372;2022-07-21T14:04:17;5.50;;;2.33;;
43710;SDS011;29309;42.682;23.372;2022-07-21T14:06:43;7.03;;;2.60;;
43710;SDS011;29309;42.682;23.372;2022-07-21T14:09:12;4.72;;;3.05;;
43710;SDS011;29309;42.682;23.372;2022-07-21T14:11:38;2.88;;;2.10;;
43710;SDS011;29309;42.682;23.372;2022-07-21T14:14:04;3.25;;;1.95;;
43710;SDS011;29309;42.682;23.372;2022-07-21T14:16:30;12.82;;;2.47;;
43710;SDS011;29309;42.682;23.372;2022-07-21T14:18:55;9.40;;;2.40;;
43710;SDS011;29309;42.682;23.372;2022-07-21T14:21:21;6.45;;;2.28;;
43710;SDS011;29309;42.682;23.372;2022-07-21T14:23:46;6.25;;;2.42;;
43710;SDS011;29309;42.682;23.372;2022-07-21T14:26:12;5.38;;;2.53;;
43710;SDS011;29309;42.682;23.372;2022-07-21T14:28:37;12.10;;;2.90;;
43710;SDS011;29309;42.682;23.372;2022-07-21T14:31:03;7.68;;;2.22;;
43710;SDS011;29309;42.682;23.372;2022-07-21T14:33:28;3.22;;;2.38;;
43710;SDS011;29309;42.682;23.372;2022-07-21T14:35:55;5.90;;;2.00;;
43710;SDS011;29309;42.682;23.372;2022-07-21T14:38:21;7.93;;;2.22;;
43710;SDS011;29309;42.682;23.372;2022-07-21T14:40:49;7.13;;;2.45;;
43710;SDS011;29309;42.682;23.372;2022-07-21T14:43:14;2.75;;;1.92;;
43710;SDS011;29309;42.682;23.372;2022-07-21T14:45:40;8.55;;;2.00;;
43710;SDS011;29309;42.682;23.372;2022-07-21T14:48:05;9.05;;;2.75;;
43710;SDS011;29309;42.682;23.372;2022-07-21T14:50:33;9.88;;;2.70;;
43710;SDS011;29309;42.682;23.372;2022-07-21T14:52:59;6.18;;;2.45;;
43710;SDS011;29309;42.682;23.372;2022-07-21T14:55:25;2.53;;;2.10;;
43710;SDS011;29309;42.682;23.372;2022-07-21T14:57:51;6.25;;;2.42;;
43710;SDS011;29309;42.682;23.372;2022-07-21T15:00:17;7.80;;;2.78;;
43710;SDS011;29309;42.682;23.372;2022-07-21T15:02:43;3.85;;;2.30;;
43710;SDS011;29309;42.682;23.372;2022-07-21T15:05:09;4.53;;;2.25;;
43710;SDS011;29309;42.682;23.372;2022-07-21T15:07:34;3.65;;;2.40;;
43710;SDS011;29309;42.682;23.372;2022-07-21T15:10:00;8.13;;;2.25;;
43710;SDS011;29309;42.682;23.372;2022-07-21T15:12:25;5.18;;;2.33;;
43710;SDS011;29309;42.682;23.372;2022-07-21T15:14:51;4.68;;;2.20;;
43710;SDS011;29309;42.682;23.372;2022-07-21T15:17:17;3.97;;;2.60;;
43710;SDS011;29309;42.682;23.372;2022-07-21T15:19:43;3.08;;;1.98;;
43710;SDS011;29309;42.682;23.372;2022-07-21T15:22:09;4.20;;;2.17;;
43710;SDS011;29309;42.682;23.372;2022-07-21T15:24:35;9.90;;;3.75;;
43710;SDS011;29309;42.682;23.372;2022-07-21T15:27:01;9.13;;;2.50;;